Time;durP1;ratioP1;P1;durP2;ratioP2;P2;SDS_P1;SDS_P2;PMS_P1;PMS_P2;Temp;Humidity;BMP_temperature;BMP_pressure;BME280_temperature;BME280_humidity;BME280_pressure;Samples;Min_cycle;Max_cycle;Signal;HPM_P1;HPM_P2
2021/10/30 00:00:42;;;;;;;13.03;6.03;;;;;;;;;;4994791;28;20458;-78
2021/10/30 00:03:08;;;;;;;9.70;5.03;;;;;;;;;;4976895;28;20485;-78
2021/10/30 00:05:34;;;;;;;7.17;5.43;;;;;;;;;;4994676;28;20411;-77
2021/10/30 00:08:00;;;;;;;9.80;5.50;;;;;;;;;;4994664;28;20422;-78
2021/10/30 00:10:26;;;;;;;10.20;5.63;;;;;;;;;;4994476;28;20397;-79
2021/10/30 00:12:52;;;;;;;12.30;6.00;;;;;;;;;;4992897;28;20443;-79
2021/10/30 00:15:18;;;;;;;17.00;6.40;;;;;;;;;;4994539;28;20440;-79
2021/10/30 00:17:44;;;;;;;10.93;7.17;;;;;;;;;;4994130;28;20466;-77
2021/10/30 00:20:10;;;;;;;11.13;7.33;;;;;;;;;;4994415;28;20415;-77
2021/10/30 00:22:36;;;;;;;14.33;6.50;;;;;;;;;;4993788;28;20514;-79
2021/10/30 00:25:03;;;;;;;11.53;7.40;;;;;;;;;;4993134;28;20422;-78
2021/10/30 00:27:29;;;;;;;11.97;7.60;;;;;;;;;;4994242;28;20404;-78
2021/10/30 00:29:55;;;;;;;14.63;7.60;;;;;;;;;;4994254;28;20987;-78
2021/10/30 00:32:21;;;;;;;14.33;8.03;;;;;;;;;;4993755;28;20454;-78
2021/10/30 00:34:47;;;;;;;11.37;8.23;;;;;;;;;;4994558;28;21093;-79
2021/10/30 00:37:13;;;;;;;11.93;8.17;;;;;;;;;;4993883;28;20570;-76
2021/10/30 00:39:39;;;;;;;13.03;8.37;;;;;;;;;;4994072;28;20811;-78
2021/10/30 00:42:05;;;;;;;11.77;8.67;;;;;;;;;;4993691;28;20430;-75
2021/10/30 00:44:31;;;;;;;12.40;8.40;;;;;;;;;;4995032;28;20390;-77
2021/10/30 00:46:57;;;;;;;13.40;8.43;;;;;;;;;;4992442;28;20427;-78
2021/10/30 00:49:28;;;;;;;11.67;8.20;;;;;;;;;;4993902;28;20907;-76
2021/10/30 00:51:55;;;;;;;12.07;8.63;;;;;;;;;;4993544;28;20513;-77
2021/10/30 00:54:22;;;;;;;13.77;7.80;;;;;;;;;;4994120;28;20418;-77
2021/10/30 00:56:49;;;;;;;11.03;8.10;;;;;;;;;;4993804;28;20561;-77
2021/10/30 00:59:17;;;;;;;14.63;7.67;;;;;;;;;;4993791;28;20419;-77
2021/10/30 01:01:44;;;;;;;12.77;7.07;;;;;;;;;;4993285;28;20837;-76
2021/10/30 01:04:10;;;;;;;10.47;6.50;;;;;;;;;;4993736;28;20410;-76
2021/10/30 01:06:38;;;;;;;9.03;6.40;;;;;;;;;;4993706;28;20414;-76
2021/10/30 01:09:05;;;;;;;8.37;5.50;;;;;;;;;;4993574;28;20415;-76
2021/10/30 01:11:31;;;;;;;12.80;6.73;;;;;;;;;;4993544;28;20427;-76
2021/10/30 01:13:57;;;;;;;12.13;6.57;;;;;;;;;;4993889;28;20437;-78
2021/10/30 01:16:23;;;;;;;10.90;7.33;;;;;;;;;;4993827;28;20458;-75
2021/10/30 01:18:49;;;;;;;7.63;6.00;;;;;;;;;;4993863;28;20406;-78
2021/10/30 01:21:24;;;;;;;7.43;5.97;;;;;;;;;;4991955;28;20887;-78
2021/10/30 01:23:50;;;;;;;12.53;6.50;;;;;;;;;;4992400;28;20418;-76
2021/10/30 01:26:16;;;;;;;11.30;6.47;;;;;;;;;;4992286;28;20423;-76
2021/10/30 01:28:42;;;;;;;8.67;5.63;;;;;;;;;;4993891;28;20417;-77
2021/10/30 01:31:08;;;;;;;6.87;5.50;;;;;;;;;;4996918;28;20434;-75
2021/10/30 01:33:34;;;;;;;15.17;5.90;;;;;;;;;;4997265;28;20805;-76
2021/10/30 01:36:10;;;;;;;8.37;5.30;;;;;;;;;;4996193;28;20414;-76
2021/10/30 01:38:36;;;;;;;7.93;5.70;;;;;;;;;;4997247;28;20421;-76
2021/10/30 01:41:02;;;;;;;8.00;6.13;;;;;;;;;;4996932;28;20800;-76
2021/10/30 01:43:28;;;;;;;7.13;4.70;;;;;;;;;;4996932;28;20430;-77
2021/10/30 01:45:54;;;;;;;6.43;5.10;;;;;;;;;;4997212;28;20410;-79
2021/10/30 01:48:21;;;;;;;9.13;5.67;;;;;;;;;;4997126;28;20411;-76
2021/10/30 01:50:47;;;;;;;7.60;4.93;;;;;;;;;;4995751;28;20477;-76
2021/10/30 01:53:13;;;;;;;5.50;5.00;;;;;;;;;;4996725;28;20438;-77
2021/10/30 01:55:40;;;;;;;7.80;5.20;;;;;;;;;;4996884;28;20421;-77
2021/10/30 01:58:07;;;;;;;7.00;5.00;;;;;;;;;;4996776;28;20466;-77
2021/10/30 02:00:34;;;;;;;5.67;4.67;;;;;;;;;;4997106;28;20464;-76
2021/10/30 02:03:00;;;;;;;6.70;5.07;;;;;;;;;;4996455;28;20451;-75
2021/10/30 02:05:26;;;;;;;7.67;4.30;;;;;;;;;;4996784;28;20393;-75
2021/10/30 02:07:52;;;;;;;10.30;4.50;;;;;;;;;;4996747;28;20430;-76
2021/10/30 02:10:18;;;;;;;8.07;5.40;;;;;;;;;;4996919;28;20415;-75
2021/10/30 02:12:44;;;;;;;5.07;4.53;;;;;;;;;;4996387;28;20919;-75
2021/10/30 02:15:10;;;;;;;7.17;5.23;;;;;;;;;;4996647;28;20414;-77
2021/10/30 02:17:37;;;;;;;6.53;5.70;;;;;;;;;;4996499;28;20993;-76
2021/10/30 02:20:05;;;;;;;7.53;4.60;;;;;;;;;;4996569;28;20415;-75
2021/10/30 02:22:31;;;;;;;5.53;4.53;;;;;;;;;;4996161;28;20443;-75
2021/10/30 02:24:57;;;;;;;5.50;4.90;;;;;;;;;;4996588;28;20856;-75
2021/10/30 02:27:23;;;;;;;7.57;5.67;;;;;;;;;;4996287;28;20510;-77
2021/10/30 02:29:49;;;;;;;7.50;5.60;;;;;;;;;;4996394;28;20434;-78
2021/10/30 02:32:15;;;;;;;8.20;6.43;;;;;;;;;;4995990;28;20458;-78
2021/10/30 02:34:41;;;;;;;13.23;5.80;;;;;;;;;;4995058;28;20431;-76
2021/10/30 02:37:07;;;;;;;9.33;6.07;;;;;;;;;;4996165;28;20443;-79
2021/10/30 02:39:33;;;;;;;11.60;6.60;;;;;;;;;;4995912;28;20469;-78
2021/10/30 02:41:59;;;;;;;9.60;5.90;;;;;;;;;;4995658;28;20496;-76
2021/10/30 02:44:25;;;;;;;9.63;6.07;;;;;;;;;;4996110;28;20879;-78
2021/10/30 02:46:51;;;;;;;13.40;6.53;;;;;;;;;;4994741;28;20476;-77
2021/10/30 02:49:18;;;;;;;13.70;7.80;;;;;;;;;;4996145;28;20455;-78
2021/10/30 02:51:44;;;;;;;10.70;7.07;;;;;;;;;;4994431;28;20850;-77
2021/10/30 02:54:10;;;;;;;10.47;6.73;;;;;;;;;;4995927;28;20411;-77
2021/10/30 02:56:36;;;;;;;11.80;7.27;;;;;;;;;;4995941;28;20465;-78
2021/10/30 02:59:02;;;;;;;10.37;7.00;;;;;;;;;;4996010;28;20382;-77
2021/10/30 03:01:28;;;;;;;13.27;8.00;;;;;;;;;;4995604;28;20425;-77
2021/10/30 03:03:54;;;;;;;11.70;6.67;;;;;;;;;;4995758;28;20422;-77
2021/10/30 03:06:23;;;;;;;9.47;6.80;;;;;;;;;;4994640;28;20415;-77
2021/10/30 03:08:50;;;;;;;10.63;6.27;;;;;;;;;;4995707;28;20407;-76
2021/10/30 03:11:17;;;;;;;10.30;6.70;;;;;;;;;;4995239;28;20407;-77
2021/10/30 03:13:43;;;;;;;7.83;5.63;;;;;;;;;;4995577;28;20418;-76
2021/10/30 03:16:09;;;;;;;8.00;5.30;;;;;;;;;;4995529;28;20392;-77
2021/10/30 03:18:35;;;;;;;9.23;5.43;;;;;;;;;;4994475;28;20442;-77
2021/10/30 03:21:01;;;;;;;6.90;5.60;;;;;;;;;;4995113;28;20426;-77
2021/10/30 03:23:27;;;;;;;7.13;5.40;;;;;;;;;;4994131;28;20963;-76
2021/10/30 03:25:53;;;;;;;10.83;5.87;;;;;;;;;;4995283;28;20419;-77
2021/10/30 03:28:19;;;;;;;7.90;5.60;;;;;;;;;;4995292;28;20426;-76
2021/10/30 03:30:45;;;;;;;6.53;5.67;;;;;;;;;;4994083;28;20446;-77
2021/10/30 03:33:11;;;;;;;6.57;5.77;;;;;;;;;;4994920;28;20517;-76
2021/10/30 03:35:38;;;;;;;7.73;4.90;;;;;;;;;;4995250;28;20407;-76
2021/10/30 03:38:04;;;;;;;9.93;5.10;;;;;;;;;;4993538;28;20470;-77
2021/10/30 03:40:30;;;;;;;10.30;5.87;;;;;;;;;;4993847;28;20465;-76
2021/10/30 03:42:56;;;;;;;7.20;5.60;;;;;;;;;;4993284;28;20446;-76
2021/10/30 03:45:22;;;;;;;10.63;6.23;;;;;;;;;;4995060;28;20644;-77
2021/10/30 03:47:49;;;;;;;9.87;6.00;;;;;;;;;;4994893;28;20427;-77
2021/10/30 03:50:15;;;;;;;12.60;6.90;;;;;;;;;;4994741;28;20498;-77
2021/10/30 03:52:41;;;;;;;10.13;6.83;;;;;;;;;;4993794;28;20458;-76
2021/10/30 03:55:07;;;;;;;9.35;6.07;;;;;;;;;;4994795;28;20758;-76
2021/10/30 03:57:33;;;;;;;11.57;6.00;;;;;;;;;;4994663;28;20203;-78
2021/10/30 03:59:59;;;;;;;10.30;6.13;;;;;;;;;;4994737;28;20411;-76
2021/10/30 04:02:25;;;;;;;8.63;5.00;;;;;;;;;;4994045;28;20422;-76
2021/10/30 04:04:51;;;;;;;6.70;4.87;;;;;;;;;;4994700;28;20179;-76
2021/10/30 04:07:18;;;;;;;9.77;4.97;;;;;;;;;;4993618;28;20426;-77
2021/10/30 04:09:44;;;;;;;7.40;5.05;;;;;;;;;;4994726;28;20202;-76
2021/10/30 04:12:10;;;;;;;11.23;5.45;;;;;;;;;;4992795;28;20214;-77
2021/10/30 04:14:36;;;;;;;7.40;4.80;;;;;;;;;;4994090;28;20179;-76
2021/10/30 04:17:03;;;;;;;7.50;5.45;;;;;;;;;;4994314;28;20203;-77
2021/10/30 04:19:29;;;;;;;7.77;5.33;;;;;;;;;;4993004;28;20188;-76
2021/10/30 04:21:55;;;;;;;9.27;4.50;;;;;;;;;;4993967;28;20468;-77
2021/10/30 04:24:21;;;;;;;9.13;4.53;;;;;;;;;;4992956;28;20978;-76
2021/10/30 04:26:47;;;;;;;8.40;4.30;;;;;;;;;;4992930;28;20502;-76
2021/10/30 04:29:13;;;;;;;7.50;4.70;;;;;;;;;;4992909;28;20431;-77
2021/10/30 04:31:39;;;;;;;8.03;4.90;;;;;;;;;;4993710;28;20462;-77
2021/10/30 04:34:07;;;;;;;6.72;4.43;;;;;;;;;;4994112;28;20505;-77
2021/10/30 04:36:35;;;;;;;7.10;3.90;;;;;;;;;;4994097;28;20207;-78
2021/10/30 04:39:02;;;;;;;4.77;4.17;;;;;;;;;;4992675;28;20678;-77
2021/10/30 04:41:29;;;;;;;5.88;3.80;;;;;;;;;;4993673;28;20816;-76
2021/10/30 04:43:56;;;;;;;5.72;4.38;;;;;;;;;;4992795;28;20179;-77
2021/10/30 04:46:23;;;;;;;5.90;4.17;;;;;;;;;;4992697;28;20175;-77
2021/10/30 04:48:49;;;;;;;6.00;3.80;;;;;;;;;;4993675;28;20501;-77
2021/10/30 04:51:15;;;;;;;6.40;4.07;;;;;;;;;;4992158;28;20430;-76
2021/10/30 04:53:43;;;;;;;5.43;4.20;;;;;;;;;;4992543;28;20237;-76
2021/10/30 04:56:10;;;;;;;7.53;4.00;;;;;;;;;;4994059;28;20180;-76
2021/10/30 04:58:42;;;;;;;6.10;3.33;;;;;;;;;;4992793;28;20430;-76
2021/10/30 05:01:09;;;;;;;4.73;3.30;;;;;;;;;;4992387;28;20431;-77
2021/10/30 05:03:35;;;;;;;7.53;3.77;;;;;;;;;;4991563;28;20452;-76
2021/10/30 05:06:01;;;;;;;6.50;3.13;;;;;;;;;;4992638;28;20517;-76
2021/10/30 05:08:27;;;;;;;4.20;3.47;;;;;;;;;;4992573;28;20430;-77
2021/10/30 05:10:53;;;;;;;5.20;3.17;;;;;;;;;;4992482;28;20461;-78
2021/10/30 05:13:18;;;;;;;4.60;3.50;;;;;;;;;;4993314;28;20501;-76
2021/10/30 05:15:44;;;;;;;4.50;3.20;;;;;;;;;;4993553;28;20424;-78
2021/10/30 05:18:10;;;;;;;5.50;3.40;;;;;;;;;;4993510;28;20600;-78
2021/10/30 05:20:36;;;;;;;4.87;3.23;;;;;;;;;;4993634;28;20458;-78
2021/10/30 05:23:02;;;;;;;4.73;2.97;;;;;;;;;;4991825;28;20941;-77
2021/10/30 05:25:28;;;;;;;4.00;3.10;;;;;;;;;;4993504;28;20393;-78
2021/10/30 05:27:54;;;;;;;4.97;3.73;;;;;;;;;;4993690;28;20419;-77
2021/10/30 05:30:20;;;;;;;3.60;3.13;;;;;;;;;;4993371;28;20429;-78
2021/10/30 05:32:46;;;;;;;3.00;2.67;;;;;;;;;;4991984;28;20431;-76
2021/10/30 05:35:12;;;;;;;4.53;3.00;;;;;;;;;;4992276;28;20415;-77
2021/10/30 05:37:38;;;;;;;7.50;3.83;;;;;;;;;;4976019;28;20823;-77
2021/10/30 05:40:07;;;;;;;6.70;3.23;;;;;;;;;;4993482;28;20406;-78
2021/10/30 05:42:36;;;;;;;4.80;3.10;;;;;;;;;;4991983;28;20973;-78
2021/10/30 05:45:05;;;;;;;4.03;3.50;;;;;;;;;;4993203;28;20411;-78
2021/10/30 05:47:33;;;;;;;5.03;3.43;;;;;;;;;;4993153;28;20423;-78
2021/10/30 05:49:59;;;;;;;10.93;3.87;;;;;;;;;;4993265;28;20414;-77
2021/10/30 05:52:25;;;;;;;4.10;3.73;;;;;;;;;;4991717;28;20446;-77
2021/10/30 05:54:51;;;;;;;4.00;3.60;;;;;;;;;;4993400;28;20406;-78
2021/10/30 05:57:17;;;;;;;5.63;3.17;;;;;;;;;;4993321;28;20458;-78
2021/10/30 05:59:43;;;;;;;6.33;3.80;;;;;;;;;;4992104;28;20442;-79
2021/10/30 06:02:12;;;;;;;4.07;3.17;;;;;;;;;;4993046;28;20434;-78
2021/10/30 06:04:41;;;;;;;5.90;3.50;;;;;;;;;;4993280;28;20522;-79
2021/10/30 06:07:08;;;;;;;3.73;3.20;;;;;;;;;;4993451;28;20898;-78
2021/10/30 06:09:34;;;;;;;7.57;3.60;;;;;;;;;;4992124;28;20789;-78
2021/10/30 06:12:00;;;;;;;4.83;3.90;;;;;;;;;;4991796;28;20438;-79
2021/10/30 06:14:26;;;;;;;4.83;3.53;;;;;;;;;;4993159;28;20497;-79
2021/10/30 06:16:52;;;;;;;5.20;3.70;;;;;;;;;;4995485;28;20500;-78
2021/10/30 06:19:18;;;;;;;5.40;3.10;;;;;;;;;;4996564;28;20422;-78
2021/10/30 06:21:45;;;;;;;5.50;3.50;;;;;;;;;;4995001;28;20422;-78
2021/10/30 06:24:11;;;;;;;3.27;2.90;;;;;;;;;;4995295;28;20433;-77
2021/10/30 06:26:37;;;;;;;5.80;3.47;;;;;;;;;;4996418;28;20416;-78
2021/10/30 06:29:03;;;;;;;4.03;3.03;;;;;;;;;;4996514;28;20958;-79
2021/10/30 06:31:29;;;;;;;2.83;2.60;;;;;;;;;;4995866;28;20457;-78
2021/10/30 06:33:55;;;;;;;3.50;2.50;;;;;;;;;;4995229;28;20901;-79
2021/10/30 06:36:21;;;;;;;5.20;2.70;;;;;;;;;;4996337;28;20415;-79
2021/10/30 06:38:49;;;;;;;4.23;2.77;;;;;;;;;;4996308;28;20485;-78
2021/10/30 06:41:15;;;;;;;2.30;2.10;;;;;;;;;;4995838;28;20453;-77
2021/10/30 06:43:41;;;;;;;4.53;3.07;;;;;;;;;;4996036;28;20453;-77
2021/10/30 06:46:08;;;;;;;2.47;2.27;;;;;;;;;;4995988;28;20421;-77
2021/10/30 06:48:34;;;;;;;3.50;2.50;;;;;;;;;;4996020;28;20415;-80
2021/10/30 06:51:00;;;;;;;5.30;2.40;;;;;;;;;;4995532;28;20409;-78
2021/10/30 06:53:26;;;;;;;3.17;2.87;;;;;;;;;;4994848;28;20850;-78
2021/10/30 06:55:54;;;;;;;3.70;2.60;;;;;;;;;;4995700;28;20782;-78
2021/10/30 06:58:20;;;;;;;4.30;2.90;;;;;;;;;;4995894;28;20490;-77
2021/10/30 07:00:46;;;;;;;3.40;2.73;;;;;;;;;;4996169;28;20877;-78
2021/10/30 07:03:12;;;;;;;4.33;3.03;;;;;;;;;;4995665;28;20453;-78
2021/10/30 07:05:40;;;;;;;6.30;4.00;;;;;;;;;;4994542;28;20449;-78
2021/10/30 07:08:06;;;;;;;7.60;4.17;;;;;;;;;;4995397;28;20476;-80
2021/10/30 07:10:32;;;;;;;6.47;4.30;;;;;;;;;;4990391;28;20574;-78
2021/10/30 07:12:58;;;;;;;4.07;3.40;;;;;;;;;;4993303;28;20548;-77
2021/10/30 07:15:24;;;;;;;5.27;3.23;;;;;;;;;;4993936;28;20470;-75
2021/10/30 07:17:50;;;;;;;6.57;3.90;;;;;;;;;;4992259;28;20497;-78
2021/10/30 07:20:17;;;;;;;7.30;3.70;;;;;;;;;;4992768;28;20449;-76
2021/10/30 07:22:47;;;;;;;5.23;3.67;;;;;;;;;;4993665;28;20435;-76
2021/10/30 07:25:14;;;;;;;6.17;3.43;;;;;;;;;;4992849;28;20419;-78
2021/10/30 07:27:41;;;;;;;4.40;3.67;;;;;;;;;;4993135;28;20453;-78
2021/10/30 07:30:08;;;;;;;5.63;4.23;;;;;;;;;;4993567;28;20859;-78
2021/10/30 07:32:34;;;;;;;6.03;3.93;;;;;;;;;;4993316;28;20497;-76
2021/10/30 07:35:02;;;;;;;7.10;3.77;;;;;;;;;;4993523;28;20431;-77
2021/10/30 07:37:28;;;;;;;6.77;4.10;;;;;;;;;;4992793;28;20465;-77
2021/10/30 07:39:54;;;;;;;5.37;3.40;;;;;;;;;;4992499;28;21006;-78
2021/10/30 07:42:20;;;;;;;4.50;3.10;;;;;;;;;;4993456;28;20457;-80
2021/10/30 07:44:46;;;;;;;3.23;2.93;;;;;;;;;;4993339;28;21167;-79
2021/10/30 07:47:12;;;;;;;4.83;3.23;;;;;;;;;;4993105;28;20422;-78
2021/10/30 07:49:39;;;;;;;3.07;2.80;;;;;;;;;;4993252;28;20526;-78
2021/10/30 07:52:06;;;;;;;3.80;3.00;;;;;;;;;;4992854;28;20532;-77
2021/10/30 07:54:32;;;;;;;5.70;2.87;;;;;;;;;;4991296;28;20839;-77
2021/10/30 07:56:59;;;;;;;4.77;2.50;;;;;;;;;;4993564;28;20540;-78
2021/10/30 07:59:25;;;;;;;5.03;2.70;;;;;;;;;;4992043;28;20939;-78
2021/10/30 08:01:51;;;;;;;4.43;3.13;;;;;;;;;;4992541;28;20921;-79
2021/10/30 08:04:17;;;;;;;3.73;2.60;;;;;;;;;;4992621;28;20423;-78
2021/10/30 08:06:44;;;;;;;3.33;2.40;;;;;;;;;;4993366;28;20426;-77
2021/10/30 08:09:10;;;;;;;3.30;2.30;;;;;;;;;;4992238;28;20426;-77
2021/10/30 08:11:36;;;;;;;2.90;2.57;;;;;;;;;;4991490;28;20581;-78
2021/10/30 08:14:03;;;;;;;3.60;2.73;;;;;;;;;;4991006;28;20932;-76
2021/10/30 08:16:29;;;;;;;3.67;2.53;;;;;;;;;;4991072;28;20454;-76
2021/10/30 08:18:55;;;;;;;3.33;2.50;;;;;;;;;;4993116;28;20431;-77
2021/10/30 08:21:21;;;;;;;2.40;2.20;;;;;;;;;;4992407;28;20423;-76
2021/10/30 08:23:47;;;;;;;2.63;2.03;;;;;;;;;;4992516;28;20431;-74
2021/10/30 08:26:13;;;;;;;4.23;3.10;;;;;;;;;;4992627;28;20418;-78
2021/10/30 08:28:39;;;;;;;4.37;2.63;;;;;;;;;;4991606;28;20442;-75
2021/10/30 08:31:05;;;;;;;3.83;2.17;;;;;;;;;;4991418;28;20442;-75
2021/10/30 08:33:31;;;;;;;2.30;1.97;;;;;;;;;;4991640;28;21022;-76
2021/10/30 08:35:57;;;;;;;2.03;1.70;;;;;;;;;;4992480;28;20521;-76
2021/10/30 08:38:23;;;;;;;2.17;1.97;;;;;;;;;;4993985;28;20470;-78
2021/10/30 08:40:49;;;;;;;2.43;1.80;;;;;;;;;;4992781;28;20421;-77
2021/10/30 08:43:22;;;;;;;1.77;1.40;;;;;;;;;;4991311;28;20569;-76
2021/10/30 08:45:50;;;;;;;4.23;2.23;;;;;;;;;;4991523;28;20534;-77
2021/10/30 08:48:18;;;;;;;1.73;1.33;;;;;;;;;;4992583;28;20435;-78
2021/10/30 08:50:44;;;;;;;1.93;1.53;;;;;;;;;;4992251;28;20423;-76
2021/10/30 08:53:10;;;;;;;2.00;1.70;;;;;;;;;;4991693;28;20446;-77
2021/10/30 08:55:36;;;;;;;1.90;1.80;;;;;;;;;;4990928;28;20513;-78
2021/10/30 08:58:13;;;;;;;3.40;2.00;;;;;;;;;;4991122;28;20473;-77
2021/10/30 09:00:40;;;;;;;2.60;1.70;;;;;;;;;;4990224;28;20524;-75
2021/10/30 09:03:06;;;;;;;2.30;1.70;;;;;;;;;;4992039;28;20441;-76
2021/10/30 09:05:33;;;;;;;3.30;1.73;;;;;;;;;;4992205;28;20430;-76
2021/10/30 09:08:00;;;;;;;2.00;1.50;;;;;;;;;;4990621;28;20434;-77
2021/10/30 09:10:28;;;;;;;3.10;1.60;;;;;;;;;;4992705;28;20419;-74
2021/10/30 09:12:58;;;;;;;4.20;1.97;;;;;;;;;;4991303;28;20450;-78
2021/10/30 09:15:48;;;;;;;2.10;1.90;;;;;;;;;;4991161;28;20842;-75
2021/10/30 09:18:22;;;;;;;3.13;1.80;;;;;;;;;;4990979;28;20488;-77
2021/10/30 09:20:49;;;;;;;1.70;1.40;;;;;;;;;;4990838;28;20427;-75
2021/10/30 09:23:19;;;;;;;2.37;1.53;;;;;;;;;;4990944;28;20421;-78
2021/10/30 09:26:02;;;;;;;3.70;2.17;;;;;;;;;;4992212;28;20431;-77
2021/10/30 09:28:33;;;;;;;2.20;1.67;;;;;;;;;;4990438;28;20430;-76
2021/10/30 09:31:00;;;;;;;3.73;1.90;;;;;;;;;;4991089;28;20455;-76
2021/10/30 09:33:35;;;;;;;5.07;2.00;;;;;;;;;;4990361;28;20417;-74
2021/10/30 09:36:11;;;;;;;3.23;1.80;;;;;;;;;;4992046;28;20424;-75
2021/10/30 09:38:39;;;;;;;1.93;1.67;;;;;;;;;;4991638;28;20437;-75
2021/10/30 09:41:21;;;;;;;2.90;2.10;;;;;;;;;;4990528;28;20430;-75
2021/10/30 09:44:17;;;;;;;2.83;1.67;;;;;;;;;;4991290;28;20385;-76
2021/10/30 09:46:46;;;;;;;1.30;1.20;;;;;;;;;;4990535;28;20401;-75
2021/10/30 09:49:23;;;;;;;3.70;1.90;;;;;;;;;;4991831;28;20915;-75
2021/10/30 09:51:50;;;;;;;2.37;1.70;;;;;;;;;;4994371;28;20456;-77
2021/10/30 09:54:32;;;;;;;2.90;2.07;;;;;;;;;;4994478;28;20483;-75
2021/10/30 09:56:59;;;;;;;2.10;1.47;;;;;;;;;;4995135;28;20436;-77
2021/10/30 09:59:26;;;;;;;3.27;1.90;;;;;;;;;;4993685;28;20393;-74
2021/10/30 10:01:52;;;;;;;1.70;1.60;;;;;;;;;;4993197;28;20453;-76
2021/10/30 10:04:19;;;;;;;3.80;1.70;;;;;;;;;;4994342;28;20484;-78
2021/10/30 10:06:46;;;;;;;2.70;2.20;;;;;;;;;;4994609;28;20409;-77
2021/10/30 10:09:13;;;;;;;2.30;1.73;;;;;;;;;;4994112;28;21015;-76
2021/10/30 10:11:46;;;;;;;3.67;2.83;;;;;;;;;;4994565;28;20984;-76
2021/10/30 10:14:16;;;;;;;1.83;1.70;;;;;;;;;;4992037;28;20438;-75
2021/10/30 10:16:43;;;;;;;2.03;1.83;;;;;;;;;;4993689;28;21009;-78
2021/10/30 10:19:09;;;;;;;3.20;2.07;;;;;;;;;;4995236;28;20480;-75
2021/10/30 10:21:37;;;;;;;2.30;2.10;;;;;;;;;;4992434;28;20501;-75
2021/10/30 10:24:10;;;;;;;2.20;1.60;;;;;;;;;;4993881;28;20489;-77
2021/10/30 10:26:53;;;;;;;3.67;2.30;;;;;;;;;;4993625;28;20843;-79
2021/10/30 10:29:28;;;;;;;2.67;1.90;;;;;;;;;;4994363;28;20498;-76
2021/10/30 10:31:54;;;;;;;3.77;2.40;;;;;;;;;;4993289;28;20561;-76
2021/10/30 10:34:21;;;;;;;3.60;2.30;;;;;;;;;;4994750;28;20397;-78
2021/10/30 10:36:48;;;;;;;3.00;2.20;;;;;;;;;;4992899;28;20475;-77
2021/10/30 10:39:15;;;;;;;5.27;2.43;;;;;;;;;;4993505;28;20401;-75
2021/10/30 10:41:44;;;;;;;3.80;3.00;;;;;;;;;;4993011;28;20450;-77
2021/10/30 10:44:37;;;;;;;3.87;2.47;;;;;;;;;;4994720;28;20382;-75
2021/10/30 10:47:04;;;;;;;7.87;2.93;;;;;;;;;;4993150;28;20856;-78
2021/10/30 10:49:34;;;;;;;3.30;2.60;;;;;;;;;;4993091;28;20426;-77
2021/10/30 10:52:04;;;;;;;3.63;2.80;;;;;;;;;;4992477;28;20443;-75
2021/10/30 10:54:49;;;;;;;3.03;2.37;;;;;;;;;;4992849;28;20436;-76
2021/10/30 10:57:41;;;;;;;3.40;3.10;;;;;;;;;;4992920;28;20976;-76
2021/10/30 11:00:08;;;;;;;4.10;3.20;;;;;;;;;;4992862;28;20501;-75
2021/10/30 11:02:34;;;;;;;3.83;3.43;;;;;;;;;;4993396;28;20405;-74
2021/10/30 11:05:14;;;;;;;5.53;3.00;;;;;;;;;;4993906;28;20509;-75
2021/10/30 11:07:41;;;;;;;3.77;3.33;;;;;;;;;;4994095;28;20833;-76
2021/10/30 11:10:08;;;;;;;3.43;3.13;;;;;;;;;;4994397;28;20423;-77
2021/10/30 11:12:34;;;;;;;4.60;3.57;;;;;;;;;;4993109;28;20421;-77
2021/10/30 11:15:05;;;;;;;4.83;3.83;;;;;;;;;;4992972;28;20533;-76
2021/10/30 11:17:37;;;;;;;5.53;3.40;;;;;;;;;;4991143;28;20462;-75
2021/10/30 11:20:10;;;;;;;4.00;3.37;;;;;;;;;;4993660;28;20782;-76
2021/10/30 11:22:36;;;;;;;3.50;2.83;;;;;;;;;;4993374;28;20497;-75
2021/10/30 11:25:02;;;;;;;7.07;3.67;;;;;;;;;;4992647;28;20484;-76
2021/10/30 11:27:28;;;;;;;2.93;2.37;;;;;;;;;;4991847;28;20485;-76
2021/10/30 11:29:54;;;;;;;2.97;2.20;;;;;;;;;;4993963;28;20426;-78
2021/10/30 11:32:22;;;;;;;3.43;1.83;;;;;;;;;;4975585;28;20437;-78
2021/10/30 11:34:51;;;;;;;3.80;2.10;;;;;;;;;;4993302;28;20409;-79
2021/10/30 11:37:18;;;;;;;2.20;1.63;;;;;;;;;;4992235;28;20466;-79
2021/10/30 11:39:46;;;;;;;5.77;1.80;;;;;;;;;;4993897;28;20934;-77
2021/10/30 11:42:12;;;;;;;3.67;1.80;;;;;;;;;;4992589;28;20793;-79
2021/10/30 11:45:07;;;;;;;3.20;2.40;;;;;;;;;;4992596;28;20793;-76
2021/10/30 11:47:33;;;;;;;3.43;2.00;;;;;;;;;;4984908;28;20927;-77
2021/10/30 11:50:00;;;;;;;2.00;1.70;;;;;;;;;;4991378;28;20430;-79
2021/10/30 11:52:27;;;;;;;2.33;2.00;;;;;;;;;;4993100;28;20558;-77
2021/10/30 11:54:57;;;;;;;2.60;1.87;;;;;;;;;;4991805;28;20413;-77
2021/10/30 11:57:23;;;;;;;2.20;1.90;;;;;;;;;;4991491;28;20481;-79
2021/10/30 11:59:56;;;;;;;2.57;1.87;;;;;;;;;;4992602;28;20430;-79
2021/10/30 12:02:23;;;;;;;4.20;1.70;;;;;;;;;;4994440;28;20425;-78
2021/10/30 12:04:48;;;;;;;3.67;2.00;;;;;;;;;;4992719;28;20397;-78
2021/10/30 12:07:15;;;;;;;3.33;1.63;;;;;;;;;;4994959;28;20892;-76
2021/10/30 12:09:44;;;;;;;1.87;1.67;;;;;;;;;;4994541;28;20431;-76
2021/10/30 12:12:12;;;;;;;1.87;1.60;;;;;;;;;;4993419;28;20509;-78
2021/10/30 12:14:40;;;;;;;4.20;2.20;;;;;;;;;;4993843;28;20499;-77
2021/10/30 12:17:16;;;;;;;9.60;2.57;;;;;;;;;;4993099;28;20449;-76
2021/10/30 12:19:44;;;;;;;3.60;2.33;;;;;;;;;;4992757;28;20389;-78
2021/10/30 12:22:11;;;;;;;2.40;1.87;;;;;;;;;;4994016;28;20821;-79
2021/10/30 12:24:40;;;;;;;3.47;2.10;;;;;;;;;;4993253;28;20418;-78
2021/10/30 12:27:07;;;;;;;2.17;1.93;;;;;;;;;;4993365;28;20536;-77
2021/10/30 12:29:40;;;;;;;2.23;2.00;;;;;;;;;;4994300;28;20465;-78
2021/10/30 12:32:07;;;;;;;2.90;1.77;;;;;;;;;;4993107;28;20454;-77
2021/10/30 12:34:38;;;;;;;1.50;1.40;;;;;;;;;;4993696;28;20411;-77
2021/10/30 12:37:06;;;;;;;1.60;1.50;;;;;;;;;;4993494;28;20481;-79
2021/10/30 12:39:32;;;;;;;2.53;1.77;;;;;;;;;;4993496;28;20485;-79
2021/10/30 12:42:00;;;;;;;2.40;1.43;;;;;;;;;;4992882;28;20454;-78
2021/10/30 12:44:30;;;;;;;1.50;1.40;;;;;;;;;;4993217;28;20505;-80
2021/10/30 12:46:57;;;;;;;2.10;1.70;;;;;;;;;;4993178;28;20809;-79
2021/10/30 12:49:24;;;;;;;3.13;1.70;;;;;;;;;;4975987;28;20401;-79
2021/10/30 12:52:00;;;;;;;2.23;1.87;;;;;;;;;;4992889;28;20496;-79
2021/10/30 12:54:27;;;;;;;2.20;1.70;;;;;;;;;;4991788;28;20451;-77
2021/10/30 12:56:53;;;;;;;3.37;1.50;;;;;;;;;;4993062;28;20500;-77
2021/10/30 12:59:26;;;;;;;1.90;1.70;;;;;;;;;;4993070;28;20428;-79
2021/10/30 13:01:52;;;;;;;3.50;1.60;;;;;;;;;;4991776;28;20473;-76
2021/10/30 13:04:26;;;;;;;2.00;1.73;;;;;;;;;;4991717;28;20419;-77
2021/10/30 13:06:58;;;;;;;2.50;1.70;;;;;;;;;;4993190;28;20385;-78
2021/10/30 13:09:26;;;;;;;1.70;1.50;;;;;;;;;;4993103;28;20389;-78
2021/10/30 13:11:52;;;;;;;3.23;1.67;;;;;;;;;;4992574;28;20800;-76
2021/10/30 13:14:18;;;;;;;3.73;3.10;;;;;;;;;;4993002;28;20423;-79
2021/10/30 13:16:44;;;;;;;6.27;3.70;;;;;;;;;;4993218;28;20410;-80
2021/10/30 13:19:10;;;;;;;4.77;1.63;;;;;;;;;;4992914;28;20727;-79
2021/10/30 13:21:36;;;;;;;4.27;1.93;;;;;;;;;;4991385;28;20413;-80
2021/10/30 13:24:03;;;;;;;11.30;1.73;;;;;;;;;;4993075;28;20406;-81
2021/10/30 13:26:29;;;;;;;3.30;2.10;;;;;;;;;;4996014;28;21128;-80
2021/10/30 13:28:56;;;;;;;1.83;1.13;;;;;;;;;;4996474;28;20410;-77
2021/10/30 13:31:22;;;;;;;1.40;1.30;;;;;;;;;;4959243;28;1082487;-80
2021/10/30 13:33:49;;;;;;;1.80;1.70;;;;;;;;;;4996369;28;20179;-79
2021/10/30 13:36:17;;;;;;;1.80;1.43;;;;;;;;;;4997618;28;20408;-78
2021/10/30 13:38:43;;;;;;;1.60;1.20;;;;;;;;;;4997432;28;20500;-79
2021/10/30 13:41:09;;;;;;;1.40;1.20;;;;;;;;;;4997139;28;20472;-78
2021/10/30 13:43:35;;;;;;;2.90;1.40;;;;;;;;;;4997317;28;20497;-80
2021/10/30 13:46:02;;;;;;;2.60;1.73;;;;;;;;;;4997395;28;20377;-78
2021/10/30 13:48:28;;;;;;;2.00;1.17;;;;;;;;;;4997254;28;20419;-77
2021/10/30 13:50:54;;;;;;;1.50;1.23;;;;;;;;;;4997142;28;20733;-76
2021/10/30 13:53:20;;;;;;;1.93;1.50;;;;;;;;;;4997181;28;20441;-80
2021/10/30 13:55:46;;;;;;;1.50;1.33;;;;;;;;;;4996238;28;20389;-80
2021/10/30 13:58:11;;;;;;;1.20;1.10;;;;;;;;;;4995847;28;21041;-80
2021/10/30 14:00:38;;;;;;;1.30;1.20;;;;;;;;;;4997100;28;20432;-80
2021/10/30 14:03:04;;;;;;;1.20;1.10;;;;;;;;;;4997001;28;20405;-77
2021/10/30 14:05:30;;;;;;;2.00;1.17;;;;;;;;;;4997925;28;20915;-77
2021/10/30 14:07:56;;;;;;;2.40;1.60;;;;;;;;;;4995964;28;20414;-78
2021/10/30 14:10:23;;;;;;;1.43;1.27;;;;;;;;;;4996030;28;20442;-76
2021/10/30 14:12:49;;;;;;;1.77;1.40;;;;;;;;;;4996518;28;20829;-78
2021/10/30 14:15:15;;;;;;;2.93;1.47;;;;;;;;;;4997030;28;20464;-77
2021/10/30 14:17:40;;;;;;;1.63;1.47;;;;;;;;;;4996914;28;20818;-76
2021/10/30 14:20:07;;;;;;;1.63;1.20;;;;;;;;;;4995231;28;20494;-80
2021/10/30 14:22:33;;;;;;;1.70;1.33;;;;;;;;;;4996288;28;20434;-80
2021/10/30 14:24:59;;;;;;;1.30;1.00;;;;;;;;;;4996160;28;20422;-76
2021/10/30 14:27:25;;;;;;;5.33;1.50;;;;;;;;;;4996897;28;20397;-79
2021/10/30 14:29:52;;;;;;;3.00;1.40;;;;;;;;;;4995673;28;20726;-77
2021/10/30 14:32:18;;;;;;;2.00;1.43;;;;;;;;;;4996259;28;20453;-79
2021/10/30 14:34:44;;;;;;;1.30;1.20;;;;;;;;;;4995573;28;20444;-78
2021/10/30 14:37:10;;;;;;;1.23;1.10;;;;;;;;;;4995035;28;20493;-79
2021/10/30 14:39:36;;;;;;;1.87;1.10;;;;;;;;;;4996629;28;20451;-78
2021/10/30 14:42:02;;;;;;;1.47;1.27;;;;;;;;;;4994931;28;20525;-77